LFSI

Saint-Dizier-Robinson (BA 113) Air Base Airport

Saint-Dizier/Robinson, France
TAF LFSI 251400Z 2515/2615 08012KT CAVOK
Issued Valid From Valid To
Sep-25 @ 14:00 UTC
(5 hours ago)
Sep-25 @ 15:00 UTC
(4 hours ago)
Sep-26 @ 15:00 UTC
(in 20 hours)
Sep-25 @ 15:00 to Sep-26 @ 15:00
TAF LFSI 251400Z 2515/2615 08012KT CAVOK
Wind Visibility Clouds Conditions
80° at 12 knots 10,000+ meters
  • No significant clouds
TAF LFSI 251400Z 2515/2615 08012KT CAVOK
Issued Sep-25 @ 14:00 UTC
(5 hours ago)
Valid From Sep-25 @ 15:00 UTC
(4 hours ago)
Valid To Sep-26 @ 15:00 UTC
(in 20 hours)
Sep-25 @ 15:00 - Sep-26 @ 15:00
Wind Visibility
80° at 12 knots 10,000+ meters
Clouds
  • No significant clouds
Conditions